Time;durP1;ratioP1;P1;durP2;ratioP2;P2;SDS_P1;SDS_P2;PMS_P1;PMS_P2;Temp;Humidity;BMP_temperature;BMP_pressure;BME280_temperature;BME280_humidity;BME280_pressure;Samples;Min_cycle;Max_cycle;Signal;HPM_P1;HPM_P2
2023/10/09 00:01:30;;;;;;;2.87;1.27;;;9.40;99.90;;;;;;4923356;29;20472;-59
2023/10/09 00:03:56;;;;;;;2.15;1.02;;;9.40;99.90;;;;;;4930931;29;20094;-59
2023/10/09 00:06:30;;;;;;;2.63;1.00;;;9.40;99.90;;;;;;4928231;29;20027;-59
2023/10/09 00:08:56;;;;;;;2.15;1.40;;;9.40;99.90;;;;;;4928624;28;20020;-59
2023/10/09 00:11:26;;;;;;;3.40;1.00;;;9.40;99.90;;;;;;4926595;29;20451;-59
2023/10/09 00:13:57;;;;;;;2.13;0.95;;;9.50;99.90;;;;;;4927411;29;20027;-57
2023/10/09 00:16:32;;;;;;;1.98;1.13;;;9.50;99.90;;;;;;4929548;28;20103;-59
2023/10/09 00:21:45;;;;;;;2.15;1.23;;;9.50;99.90;;;;;;4928168;29;20133;-59
2023/10/09 00:24:17;;;;;;;2.35;1.45;;;9.50;99.90;;;;;;4927134;28;20040;-59
2023/10/09 00:26:45;;;;;;;3.88;1.13;;;9.40;99.90;;;;;;4930508;29;20391;-59
2023/10/09 00:29:16;;;;;;;3.15;1.20;;;9.40;99.90;;;;;;4925865;29;20515;-59
2023/10/09 00:31:49;;;;;;;1.42;1.05;;;9.50;99.90;;;;;;4930831;29;20031;-59
2023/10/09 00:34:19;;;;;;;2.30;1.38;;;9.50;99.90;;;;;;4926579;29;20035;-59
2023/10/09 00:36:52;;;;;;;4.35;1.60;;;9.50;99.90;;;;;;4926638;29;20473;-59
2023/10/09 00:42:02;;;;;;;2.53;1.33;;;9.40;99.90;;;;;;4930538;28;20034;-59
2023/10/09 00:44:37;;;;;;;2.92;1.00;;;9.40;99.90;;;;;;4927106;28;20083;-59
2023/10/09 00:47:20;;;;;;;2.05;1.10;;;9.40;99.90;;;;;;4918940;28;20024;-59
2023/10/09 00:50:10;;;;;;;1.48;1.02;;;9.40;99.90;;;;;;4925004;29;20484;-60
2023/10/09 00:52:39;;;;;;;1.52;1.02;;;9.40;99.90;;;;;;4930357;29;20595;-60
2023/10/09 00:55:13;;;;;;;3.17;1.40;;;9.40;99.90;;;;;;4927592;29;20083;-60
2023/10/09 00:57:56;;;;;;;2.00;1.13;;;9.40;99.90;;;;;;4922580;28;20600;-60
2023/10/09 01:05:57;;;;;;;3.15;1.20;;;9.30;99.90;;;;;;4925870;29;20431;-59
2023/10/09 01:08:29;;;;;;;2.25;0.98;;;9.30;99.90;;;;;;4922030;29;20567;-60
2023/10/09 01:11:08;;;;;;;1.10;0.90;;;9.30;99.90;;;;;;4919880;29;20027;-59
2023/10/09 01:16:16;;;;;;;2.35;1.30;;;9.20;99.90;;;;;;4922137;29;20091;-59
2023/10/09 01:18:57;;;;;;;2.03;1.20;;;9.20;99.90;;;;;;4929657;29;20039;-60
2023/10/09 01:21:26;;;;;;;2.47;1.35;;;9.20;99.90;;;;;;4928018;29;20491;-60
2023/10/09 01:26:33;;;;;;;2.03;1.25;;;9.10;99.90;;;;;;4921701;29;20504;-60
2023/10/09 01:29:00;;;;;;;2.38;1.27;;;9.20;99.90;;;;;;4919540;29;20519;-60
2023/10/09 01:31:26;;;;;;;1.80;1.10;;;9.20;99.90;;;;;;4921783;29;20024;-60
2023/10/09 01:33:59;;;;;;;4.53;1.08;;;9.20;99.90;;;;;;4921725;29;20100;-59
2023/10/09 01:36:31;;;;;;;2.75;1.17;;;9.10;99.90;;;;;;4921764;29;20484;-60
2023/10/09 01:39:21;;;;;;;3.10;1.27;;;9.20;99.90;;;;;;4921302;29;20039;-59
2023/10/09 01:41:49;;;;;;;1.98;1.05;;;9.10;99.90;;;;;;4920082;29;20028;-60
2023/10/09 01:44:16;;;;;;;1.38;1.05;;;9.10;99.90;;;;;;4921574;29;20503;-59
2023/10/09 01:46:42;;;;;;;1.30;0.95;;;9.10;99.90;;;;;;4918733;29;20034;-59
2023/10/09 01:49:16;;;;;;;2.40;1.10;;;9.10;99.90;;;;;;4922889;28;20540;-59
2023/10/09 01:51:42;;;;;;;1.63;1.10;;;9.00;99.90;;;;;;4926724;28;20058;-60
2023/10/09 01:54:07;;;;;;;4.07;1.92;;;9.00;99.90;;;;;;4927123;29;20103;-60
2023/10/09 01:56:36;;;;;;;1.80;1.10;;;9.00;99.90;;;;;;4929419;29;20031;-59
2023/10/09 01:59:05;;;;;;;2.92;1.15;;;9.00;99.90;;;;;;4928406;29;20086;-59
2023/10/09 02:01:32;;;;;;;2.72;1.60;;;8.90;99.90;;;;;;4928503;28;20100;-59
2023/10/09 02:04:05;;;;;;;1.35;1.25;;;8.90;99.90;;;;;;4926948;28;20027;-60
2023/10/09 02:06:32;;;;;;;3.35;1.55;;;8.90;99.90;;;;;;4927586;29;20054;-59
2023/10/09 02:08:59;;;;;;;2.95;1.73;;;8.80;99.90;;;;;;4921839;28;20096;-60
2023/10/09 02:11:36;;;;;;;3.15;1.55;;;8.80;99.90;;;;;;4929253;29;20025;-60
2023/10/09 02:14:06;;;;;;;2.83;1.60;;;8.80;99.90;;;;;;4926693;29;20043;-59
2023/10/09 02:16:41;;;;;;;3.08;1.90;;;8.80;99.90;;;;;;4921430;28;20110;-59
2023/10/09 02:19:17;;;;;;;2.13;1.42;;;8.80;99.90;;;;;;4921122;29;20059;-58
2023/10/09 02:21:53;;;;;;;4.43;1.35;;;8.80;99.90;;;;;;4918421;29;20041;-60
2023/10/09 02:25:05;;;;;;;2.65;1.60;;;8.80;99.90;;;;;;4921790;29;20510;-59
2023/10/09 02:27:07;;;;;;;3.92;1.80;;;8.80;99.90;;;;;;4925147;29;20047;-59
2023/10/09 02:29:35;;;;;;;4.63;1.90;;;8.70;99.90;;;;;;4927116;29;20388;-59
2023/10/09 02:32:13;;;;;;;4.55;1.38;;;8.70;99.90;;;;;;4926729;28;20032;-60
2023/10/09 02:34:38;;;;;;;2.17;1.40;;;8.70;99.90;;;;;;4928996;29;20125;-60
2023/10/09 02:37:13;;;;;;;1.35;1.20;;;8.70;99.90;;;;;;4920997;29;20503;-60
2023/10/09 02:39:47;;;;;;;2.10;1.40;;;8.80;99.90;;;;;;4921043;29;20031;-59
2023/10/09 02:44:50;;;;;;;2.03;1.52;;;8.80;99.90;;;;;;4928807;28;20403;-60
2023/10/09 02:47:20;;;;;;;4.10;1.65;;;8.80;99.90;;;;;;4922028;29;20022;-59
2023/10/09 02:49:50;;;;;;;4.57;1.92;;;8.80;99.90;;;;;;4925369;28;20047;-59
2023/10/09 02:52:18;;;;;;;2.08;1.63;;;8.70;99.90;;;;;;4930990;28;20031;-60
2023/10/09 02:54:47;;;;;;;6.40;1.98;;;8.80;99.90;;;;;;4931095;28;20055;-59
2023/10/09 02:57:28;;;;;;;3.65;1.52;;;8.70;99.90;;;;;;4930756;28;20052;-58
2023/10/09 02:59:53;;;;;;;6.28;1.83;;;8.70;99.90;;;;;;4924192;29;20047;-56
2023/10/09 03:02:19;;;;;;;2.83;1.58;;;8.70;99.90;;;;;;4924118;29;20558;-58
2023/10/09 03:04:45;;;;;;;1.73;1.30;;;8.70;99.90;;;;;;4923971;29;20447;-58
2023/10/09 03:07:13;;;;;;;1.98;1.30;;;8.80;99.90;;;;;;4924072;28;20036;-58
2023/10/09 03:09:40;;;;;;;2.20;1.33;;;8.80;99.90;;;;;;4931804;29;20346;-58
2023/10/09 03:12:09;;;;;;;2.47;1.33;;;8.80;99.90;;;;;;4928826;29;20056;-58
2023/10/09 03:14:38;;;;;;;2.67;1.65;;;8.80;99.90;;;;;;4923872;28;20504;-57
2023/10/09 03:17:04;;;;;;;2.25;1.40;;;8.90;99.90;;;;;;4925739;29;20028;-58
2023/10/09 03:19:37;;;;;;;1.88;1.27;;;8.80;99.90;;;;;;4921434;29;20035;-58
2023/10/09 03:22:03;;;;;;;1.73;1.40;;;8.90;99.90;;;;;;4922101;29;20523;-58
2023/10/09 03:24:30;;;;;;;2.17;1.35;;;8.90;99.90;;;;;;4919888;29;20113;-58
2023/10/09 03:26:56;;;;;;;3.20;1.38;;;8.90;99.90;;;;;;4923553;29;20115;-57
2023/10/09 03:29:23;;;;;;;4.05;1.60;;;8.90;99.90;;;;;;4927737;29;20110;-58
2023/10/09 03:31:50;;;;;;;2.97;1.83;;;8.80;99.90;;;;;;4931934;29;20019;-57
2023/10/09 03:34:16;;;;;;;3.72;1.88;;;8.80;99.90;;;;;;4928941;29;20079;-58
2023/10/09 03:36:43;;;;;;;4.85;1.85;;;8.80;99.90;;;;;;4929901;28;20023;-58
2023/10/09 03:39:24;;;;;;;6.50;1.88;;;8.70;99.90;;;;;;4931461;29;20087;-58
2023/10/09 03:41:51;;;;;;;2.55;2.15;;;8.70;99.90;;;;;;4928755;29;20079;-58
2023/10/09 03:44:19;;;;;;;5.68;2.47;;;8.70;99.90;;;;;;4923916;28;20031;-58
2023/10/09 03:46:46;;;;;;;4.78;2.30;;;8.70;99.90;;;;;;4931101;28;20098;-58
2023/10/09 03:49:13;;;;;;;3.42;1.92;;;8.70;99.90;;;;;;4925388;29;20034;-58
2023/10/09 03:51:39;;;;;;;4.70;1.90;;;8.70;99.90;;;;;;4927816;28;20027;-59
2023/10/09 03:54:07;;;;;;;5.63;2.78;;;8.70;99.90;;;;;;4921560;29;20031;-58
2023/10/09 03:56:34;;;;;;;3.72;1.77;;;8.70;99.90;;;;;;4923232;29;20391;-60
2023/10/09 03:59:01;;;;;;;9.15;2.78;;;8.80;99.90;;;;;;4922939;29;20023;-61
2023/10/09 04:03:55;;;;;;;5.53;2.80;;;8.80;99.90;;;;;;4923261;29;20059;-60
2023/10/09 04:06:28;;;;;;;4.65;3.13;;;8.80;99.90;;;;;;4923112;29;20058;-60
2023/10/09 04:08:54;;;;;;;3.65;2.35;;;8.80;99.90;;;;;;4921639;29;20016;-59
2023/10/09 04:11:23;;;;;;;5.03;2.65;;;8.70;99.90;;;;;;4919237;29;20571;-60
2023/10/09 04:13:49;;;;;;;4.13;2.55;;;8.70;99.90;;;;;;4923137;29;20055;-60
2023/10/09 04:16:33;;;;;;;3.33;2.35;;;8.80;99.90;;;;;;4922605;29;20233;-59
2023/10/09 04:18:59;;;;;;;4.57;3.17;;;8.80;99.90;;;;;;4927439;29;20096;-60
2023/10/09 04:21:43;;;;;;;5.00;2.85;;;8.80;99.90;;;;;;4928770;28;20036;-61
2023/10/09 04:24:22;;;;;;;4.32;2.60;;;8.80;99.90;;;;;;4927505;29;20114;-61
2023/10/09 04:26:48;;;;;;;4.32;2.55;;;8.80;99.90;;;;;;4930894;29;20674;-60
2023/10/09 04:29:23;;;;;;;4.97;3.03;;;8.90;99.90;;;;;;4928610;29;20024;-61
2023/10/09 04:31:51;;;;;;;6.00;2.50;;;8.90;99.90;;;;;;4925592;29;20019;-60
2023/10/09 04:37:24;;;;;;;4.88;2.70;;;8.90;99.90;;;;;;4927124;29;20062;-59
2023/10/09 04:39:48;;;;;;;3.83;2.58;;;8.80;99.90;;;;;;4920904;29;20043;-62
2023/10/09 04:45:18;;;;;;;3.63;2.60;;;8.90;99.90;;;;;;4927511;29;20526;-61
2023/10/09 04:47:57;;;;;;;3.22;2.65;;;8.90;99.90;;;;;;4925335;29;20083;-61
2023/10/09 04:52:55;;;;;;;6.15;3.17;;;8.90;99.90;;;;;;4927154;28;20022;-60
2023/10/09 04:55:24;;;;;;;4.18;2.70;;;8.90;99.90;;;;;;4924673;29;20027;-61
2023/10/09 04:58:09;;;;;;;4.90;2.83;;;8.80;99.90;;;;;;4924555;29;20027;-52
2023/10/09 05:00:46;;;;;;;6.15;3.28;;;8.90;99.90;;;;;;4924701;29;20066;-51
2023/10/09 05:03:12;;;;;;;4.40;3.20;;;8.90;99.90;;;;;;4929084;29;20039;-53
2023/10/09 05:08:21;;;;;;;6.47;2.83;;;8.90;99.90;;;;;;4927458;29;20083;-52
2023/10/09 05:16:22;;;;;;;7.55;3.40;;;8.80;99.90;;;;;;4927686;29;20038;-52
2023/10/09 05:19:08;;;;;;;3.58;2.80;;;8.90;99.90;;;;;;4928635;29;20020;-52
2023/10/09 05:32:15;;;;;;;5.05;3.42;;;8.80;99.90;;;;;;4923964;29;20042;-47
2023/10/09 05:37:33;;;;;;;4.30;2.80;;;8.80;99.90;;;;;;4928634;29;20034;-52
2023/10/09 05:47:53;;;;;;;4.32;3.08;;;8.80;99.90;;;;;;4920836;28;20117;-50
2023/10/09 06:14:04;;;;;;;9.10;4.32;;;9.00;99.90;;;;;;4923744;29;20043;-51
2023/10/09 06:19:11;;;;;;;8.75;4.82;;;9.00;99.90;;;;;;4929191;29;20044;-50
2023/10/09 06:24:19;;;;;;;6.53;3.70;;;9.10;99.90;;;;;;4927630;29;20086;-51
2023/10/09 06:29:37;;;;;;;4.90;3.55;;;9.20;99.90;;;;;;4926650;29;20672;-50
2023/10/09 06:34:46;;;;;;;8.32;3.30;;;9.30;99.90;;;;;;4930531;29;20538;-53
2023/10/09 06:39:50;;;;;;;8.35;3.55;;;9.40;99.90;;;;;;4923128;29;20039;-52
2023/10/09 06:42:43;;;;;;;6.32;3.25;;;9.50;99.90;;;;;;4928842;29;20019;-51
2023/10/09 06:45:19;;;;;;;5.90;2.80;;;9.50;99.90;;;;;;4931488;29;20082;-50
2023/10/09 06:47:55;;;;;;;5.28;2.75;;;9.60;99.90;;;;;;4928443;29;20031;-52
2023/10/09 06:52:57;;;;;;;3.80;2.78;;;9.70;99.90;;;;;;4932608;28;20024;-54
2023/10/09 06:55:43;;;;;;;5.60;4.10;;;9.70;99.90;;;;;;4931435;28;20023;-49
2023/10/09 06:58:15;;;;;;;5.97;3.85;;;9.70;99.90;;;;;;4922845;29;20036;-53
2023/10/09 07:03:32;;;;;;;4.32;2.90;;;9.70;99.90;;;;;;4930568;29;20034;-49
2023/10/09 07:06:23;;;;;;;5.63;3.60;;;9.70;99.90;;;;;;4927018;29;20032;-47
2023/10/09 07:09:15;;;;;;;3.97;3.03;;;9.70;99.90;;;;;;4928137;29;20035;-49
2023/10/09 07:16:58;;;;;;;7.05;3.50;;;9.80;99.90;;;;;;4928390;29;20078;-51
2023/10/09 07:24:58;;;;;;;6.90;4.10;;;9.80;99.90;;;;;;4930280;28;20071;-50
2023/10/09 07:30:35;;;;;;;8.00;4.25;;;9.70;99.90;;;;;;4921939;29;20058;-50
2023/10/09 07:38:20;;;;;;;7.65;3.40;;;9.80;99.90;;;;;;4928002;28;20098;-52
2023/10/09 07:40:59;;;;;;;6.13;3.60;;;9.90;99.90;;;;;;4927074;29;20028;-48
2023/10/09 07:46:29;;;;;;;6.13;3.90;;;10.00;99.90;;;;;;4924863;29;20034;-52
2023/10/09 07:48:56;;;;;;;7.00;4.57;;;9.90;99.90;;;;;;4927934;28;20505;-52
2023/10/09 07:51:23;;;;;;;8.93;4.50;;;9.80;99.90;;;;;;4928494;29;20039;-50
2023/10/09 07:53:56;;;;;;;7.45;4.70;;;9.70;99.90;;;;;;4927748;29;20031;-52
2023/10/09 07:56:23;;;;;;;7.53;4.85;;;9.70;99.90;;;;;;4928727;28;20526;-53
2023/10/09 07:58:48;;;;;;;7.97;4.32;;;9.60;99.90;;;;;;4930742;28;20071;-54
2023/10/09 08:01:15;;;;;;;7.95;4.65;;;9.70;99.90;;;;;;4927614;29;20027;-49
2023/10/09 08:03:46;;;;;;;8.77;5.07;;;9.70;99.90;;;;;;4926097;29;20110;-53
2023/10/09 08:14:42;;;;;;;8.20;5.47;;;9.70;99.90;;;;;;4925261;29;20031;-53
2023/10/09 08:17:13;;;;;;;11.18;6.68;;;9.70;99.90;;;;;;4931301;29;20027;-49
2023/10/09 08:20:11;;;;;;;8.85;5.45;;;9.70;99.90;;;;;;4929829;29;20035;-53
2023/10/09 08:22:52;;;;;;;8.13;5.32;;;9.70;99.90;;;;;;4928266;29;20508;-53
2023/10/09 08:25:27;;;;;;;9.70;5.10;;;9.70;99.90;;;;;;4921585;29;20058;-48
2023/10/09 08:27:57;;;;;;;10.10;5.50;;;9.80;99.90;;;;;;4931976;28;20055;-51
2023/10/09 08:33:03;;;;;;;9.63;5.40;;;9.80;99.90;;;;;;4928542;29;20368;-54
2023/10/09 08:35:33;;;;;;;8.98;5.70;;;9.90;99.90;;;;;;4921041;29;20103;-50
2023/10/09 08:38:07;;;;;;;10.60;5.32;;;10.00;99.90;;;;;;4929550;28;20106;-51
2023/10/09 08:40:43;;;;;;;6.15;4.82;;;10.00;99.90;;;;;;4930776;28;20134;-50
2023/10/09 08:43:18;;;;;;;8.68;5.75;;;10.10;99.90;;;;;;4928741;29;20059;-51
2023/10/09 08:46:00;;;;;;;10.05;5.95;;;10.10;99.90;;;;;;4919729;28;20477;-49
2023/10/09 08:48:27;;;;;;;10.50;6.47;;;10.10;99.90;;;;;;4927541;28;20103;-52
2023/10/09 08:50:56;;;;;;;9.00;6.03;;;10.10;99.90;;;;;;4931993;29;20031;-50
2023/10/09 08:53:27;;;;;;;10.90;6.22;;;10.10;99.90;;;;;;4921094;29;20039;-49
2023/10/09 08:55:53;;;;;;;8.20;5.75;;;10.10;99.90;;;;;;4925029;29;20020;-50
2023/10/09 08:58:20;;;;;;;8.25;6.05;;;10.10;99.90;;;;;;4927718;29;20026;-56
2023/10/09 09:00:47;;;;;;;8.18;6.20;;;10.10;99.90;;;;;;4927258;28;20039;-58
2023/10/09 09:03:17;;;;;;;10.18;6.80;;;10.20;99.90;;;;;;4930608;29;20039;-58
2023/10/09 09:06:01;;;;;;;9.18;6.65;;;10.20;99.90;;;;;;4930397;29;20059;-57
2023/10/09 09:08:29;;;;;;;7.82;6.38;;;10.30;99.90;;;;;;4928300;28;20027;-59
2023/10/09 09:11:05;;;;;;;8.60;6.45;;;10.40;99.90;;;;;;4916368;29;20023;-55
2023/10/09 09:13:31;;;;;;;9.52;7.50;;;10.50;99.90;;;;;;4923392;29;20032;-58
2023/10/09 09:15:57;;;;;;;13.40;8.80;;;10.50;99.90;;;;;;4927661;29;20060;-59
2023/10/09 09:18:23;;;;;;;14.73;9.82;;;10.40;99.90;;;;;;4926475;28;20020;-58
2023/10/09 09:20:53;;;;;;;11.70;8.98;;;10.40;99.90;;;;;;4929834;29;20669;-58
2023/10/09 09:23:23;;;;;;;11.32;7.78;;;10.40;99.90;;;;;;4930477;29;20043;-57
2023/10/09 09:25:58;;;;;;;12.13;7.30;;;10.40;99.90;;;;;;4928477;29;20027;-59
2023/10/09 09:28:26;;;;;;;13.65;9.30;;;10.40;99.90;;;;;;4927305;29;20618;-57
2023/10/09 09:30:53;;;;;;;13.90;8.88;;;10.50;99.90;;;;;;4927037;28;20373;-57
2023/10/09 09:33:26;;;;;;;10.55;8.13;;;10.50;99.90;;;;;;4930236;28;20126;-58
2023/10/09 09:36:04;;;;;;;12.65;9.10;;;10.60;99.90;;;;;;4928620;29;20020;-58
2023/10/09 09:38:50;;;;;;;13.07;8.48;;;10.50;99.90;;;;;;4924405;29;20016;-58
2023/10/09 09:41:25;;;;;;;12.17;9.67;;;10.50;99.90;;;;;;4924406;29;20035;-57
2023/10/09 09:43:57;;;;;;;14.48;9.20;;;10.40;99.90;;;;;;4927657;29;20272;-58
2023/10/09 09:46:32;;;;;;;11.63;9.30;;;10.50;99.90;;;;;;4927868;28;20102;-58
2023/10/09 09:49:00;;;;;;;13.90;10.20;;;10.60;99.90;;;;;;4923593;29;20031;-58
2023/10/09 09:51:28;;;;;;;13.57;10.40;;;10.60;99.90;;;;;;4928322;28;20578;-59
2023/10/09 09:53:54;;;;;;;9.60;8.10;;;10.50;99.90;;;;;;4926193;28;20024;-57
2023/10/09 09:56:24;;;;;;;11.32;8.48;;;10.60;99.90;;;;;;4929660;28;20130;-56
2023/10/09 09:58:53;;;;;;;11.32;7.70;;;10.70;99.90;;;;;;4929779;29;20027;-59
2023/10/09 10:01:26;;;;;;;9.73;7.72;;;10.80;99.90;;;;;;4928027;28;20121;-58
2023/10/09 10:04:01;;;;;;;12.52;8.07;;;10.80;99.90;;;;;;4932219;28;20020;-58
2023/10/09 10:06:32;;;;;;;10.70;8.60;;;10.90;99.90;;;;;;4933900;28;20031;-57
2023/10/09 10:08:58;;;;;;;14.98;10.02;;;10.90;99.90;;;;;;4929863;29;20206;-58
2023/10/09 10:11:46;;;;;;;13.63;10.13;;;10.90;99.90;;;;;;4933848;28;20074;-58
2023/10/09 10:14:31;;;;;;;17.80;11.63;;;10.80;99.90;;;;;;4935134;28;20098;-58
2023/10/09 10:17:06;;;;;;;12.70;9.88;;;10.80;99.90;;;;;;4932926;29;20026;-58
2023/10/09 10:20:14;;;;;;;13.30;9.85;;;10.80;99.90;;;;;;4931618;28;20020;-56
2023/10/09 10:22:44;;;;;;;13.70;9.80;;;10.90;99.90;;;;;;4928872;29;20414;-55
2023/10/09 10:25:32;;;;;;;14.95;10.70;;;11.00;99.90;;;;;;4927080;28;20031;-59
2023/10/09 10:28:38;;;;;;;23.15;12.63;;;11.20;99.90;;;;;;4929583;28;20023;-58
2023/10/09 10:31:03;;;;;;;15.32;10.57;;;11.30;99.90;;;;;;4925080;29;20581;-59
2023/10/09 10:33:54;;;;;;;14.88;10.63;;;11.10;99.90;;;;;;4933191;29;20070;-58
2023/10/09 10:36:23;;;;;;;15.40;10.10;;;11.10;99.90;;;;;;4931168;29;20606;-57
2023/10/09 10:39:19;;;;;;;12.55;8.70;;;11.10;99.90;;;;;;4935026;29;20510;-57
2023/10/09 10:41:55;;;;;;;13.20;8.57;;;11.20;99.90;;;;;;4926395;29;20517;-58
2023/10/09 10:44:38;;;;;;;13.15;8.80;;;11.30;99.90;;;;;;4926584;29;20094;-58
2023/10/09 10:47:22;;;;;;;14.77;9.75;;;11.40;99.90;;;;;;4924422;28;20082;-58
2023/10/09 10:49:52;;;;;;;13.07;8.80;;;11.30;99.90;;;;;;4927342;29;20020;-57
2023/10/09 10:52:22;;;;;;;15.05;9.30;;;11.10;99.90;;;;;;4931167;29;20035;-57
2023/10/09 10:55:05;;;;;;;13.95;8.75;;;11.00;99.90;;;;;;4931835;28;20019;-58
2023/10/09 10:57:53;;;;;;;12.55;8.25;;;11.00;99.90;;;;;;4926649;28;20022;-57
2023/10/09 11:03:19;;;;;;;11.40;7.90;;;11.20;99.90;;;;;;4926883;28;20144;-57
2023/10/09 11:05:50;;;;;;;10.85;7.95;;;11.10;99.90;;;;;;4932649;29;20028;-58
2023/10/09 11:08:22;;;;;;;13.77;9.60;;;11.10;99.90;;;;;;4931642;28;20055;-55
2023/10/09 11:10:51;;;;;;;13.75;9.40;;;11.00;99.90;;;;;;4924808;29;20082;-58
2023/10/09 11:13:34;;;;;;;16.80;9.65;;;10.90;99.90;;;;;;4927731;28;20063;-58
2023/10/09 11:16:15;;;;;;;14.68;10.05;;;11.00;99.90;;;;;;4924336;29;20024;-57
2023/10/09 11:18:47;;;;;;;13.25;9.43;;;10.90;99.90;;;;;;4929330;29;20023;-57
2023/10/09 11:23:57;;;;;;;13.85;9.18;;;11.00;99.90;;;;;;4928739;29;20040;-57
2023/10/09 11:26:31;;;;;;;13.80;8.27;;;11.00;99.90;;;;;;4927436;28;20028;-57
2023/10/09 11:29:16;;;;;;;16.13;10.25;;;11.10;99.90;;;;;;4925577;29;20479;-57
2023/10/09 11:32:01;;;;;;;16.35;11.10;;;11.20;99.90;;;;;;4932012;28;20467;-58
2023/10/09 11:34:37;;;;;;;17.02;11.43;;;11.40;99.90;;;;;;4931142;28;20028;-58
2023/10/09 11:37:15;;;;;;;13.77;10.50;;;11.50;99.90;;;;;;4932812;29;20032;-58
2023/10/09 11:39:50;;;;;;;11.55;9.05;;;11.50;99.90;;;;;;4925447;29;20075;-57
2023/10/09 11:45:20;;;;;;;12.88;9.73;;;11.70;99.90;;;;;;4929780;29;20108;-56
2023/10/09 11:50:53;;;;;;;11.93;8.82;;;11.70;99.90;;;;;;4914271;28;20039;-56
2023/10/09 11:55:48;;;;;;;15.32;8.45;;;11.60;99.90;;;;;;4932013;29;20033;-59
2023/10/09 11:58:24;;;;;;;18.65;10.65;;;11.60;99.90;;;;;;4928628;29;20197;-58
2023/10/09 12:01:03;;;;;;;25.98;12.95;;;11.70;99.90;;;;;;4930142;28;20046;-58
2023/10/09 12:03:29;;;;;;;15.38;8.88;;;11.80;99.90;;;;;;4931548;29;21011;-59
2023/10/09 12:06:05;;;;;;;14.77;9.25;;;11.90;99.90;;;;;;4929916;29;20028;-56
2023/10/09 12:08:32;;;;;;;10.10;7.10;;;11.90;99.90;;;;;;4930533;28;20031;-58
2023/10/09 12:10:58;;;;;;;8.85;6.57;;;11.90;99.90;;;;;;4928134;28;20571;-59
2023/10/09 12:13:25;;;;;;;12.75;6.97;;;11.90;99.90;;;;;;4931411;28;20019;-58
2023/10/09 12:15:54;;;;;;;9.40;6.03;;;11.90;99.90;;;;;;4927682;29;20095;-59
2023/10/09 12:18:21;;;;;;;9.43;6.22;;;11.80;99.90;;;;;;4926149;29;20086;-58
2023/10/09 12:20:51;;;;;;;14.13;8.27;;;11.80;99.90;;;;;;4925332;29;20182;-58
2023/10/09 12:23:21;;;;;;;8.73;6.75;;;11.90;99.90;;;;;;4921241;29;20492;-58
2023/10/09 12:25:50;;;;;;;12.80;8.27;;;12.00;99.90;;;;;;4930236;28;20032;-58
2023/10/09 12:28:20;;;;;;;9.48;6.35;;;12.10;99.90;;;;;;4922922;29;20076;-58
2023/10/09 12:30:50;;;;;;;14.27;7.45;;;12.20;99.90;;;;;;4930453;29;20800;-58
2023/10/09 12:33:16;;;;;;;9.43;6.43;;;12.40;99.90;;;;;;4919710;29;20030;-57
2023/10/09 12:35:45;;;;;;;8.45;5.80;;;12.50;99.90;;;;;;4922571;29;20035;-59
2023/10/09 12:38:12;;;;;;;7.85;5.15;;;12.60;99.90;;;;;;4923057;28;20568;-58
2023/10/09 12:40:39;;;;;;;18.20;7.57;;;12.80;99.90;;;;;;4927535;29;20024;-59
2023/10/09 12:43:05;;;;;;;8.05;4.90;;;12.80;99.90;;;;;;4923178;29;20035;-59
2023/10/09 12:45:34;;;;;;;29.58;11.75;;;12.90;99.90;;;;;;4923580;29;20055;-59
2023/10/09 12:48:02;;;;;;;9.55;6.82;;;12.90;99.90;;;;;;4916590;29;20030;-55
2023/10/09 12:50:33;;;;;;;7.78;5.68;;;12.70;99.90;;;;;;4919402;29;20024;-58
2023/10/09 12:53:02;;;;;;;8.30;5.18;;;12.50;99.90;;;;;;4919645;29;20544;-57
2023/10/09 12:55:31;;;;;;;7.05;4.45;;;12.40;99.90;;;;;;4919037;29;20043;-59
2023/10/09 12:58:06;;;;;;;17.58;9.25;;;12.50;99.90;;;;;;4924068;29;20031;-57
2023/10/09 13:00:32;;;;;;;16.02;7.97;;;12.50;99.90;;;;;;4918095;28;20524;-57
2023/10/09 13:03:00;;;;;;;14.25;7.05;;;12.70;99.90;;;;;;4925574;29;20127;-54
2023/10/09 13:05:27;;;;;;;28.48;14.23;;;12.80;99.90;;;;;;4917654;29;20036;-56
2023/10/09 13:07:53;;;;;;;11.32;6.32;;;12.90;99.90;;;;;;4922220;29;20081;-58
2023/10/09 13:10:23;;;;;;;16.48;8.70;;;12.80;99.90;;;;;;4923969;28;20072;-57
2023/10/09 13:12:55;;;;;;;21.50;11.30;;;12.80;99.90;;;;;;4927405;29;20666;-57
2023/10/09 13:15:20;;;;;;;22.60;10.80;;;12.90;99.90;;;;;;4926183;28;20023;-56
2023/10/09 13:17:46;;;;;;;12.45;6.82;;;12.90;99.90;;;;;;4920319;28;20081;-56
2023/10/09 13:20:15;;;;;;;7.38;5.60;;;12.70;99.60;;;;;;4924347;29;20035;-57
2023/10/09 13:22:42;;;;;;;7.88;4.80;;;12.50;99.90;;;;;;4926961;29;20122;-56
2023/10/09 13:25:15;;;;;;;7.38;4.70;;;12.30;99.90;;;;;;4923478;29;20790;-57
2023/10/09 13:27:50;;;;;;;8.20;4.57;;;12.10;99.90;;;;;;4925536;28;20031;-58
2023/10/09 13:30:23;;;;;;;33.95;12.77;;;12.00;99.90;;;;;;4926564;29;20023;-54
2023/10/09 13:32:50;;;;;;;16.30;6.60;;;12.00;99.90;;;;;;4924805;29;20032;-57
2023/10/09 13:35:19;;;;;;;14.65;6.20;;;12.20;99.90;;;;;;4918674;28;20083;-56
2023/10/09 13:37:53;;;;;;;9.40;5.53;;;12.30;99.90;;;;;;4917286;29;20027;-58
2023/10/09 13:40:28;;;;;;;8.30;4.78;;;12.30;99.90;;;;;;4914567;29;20393;-56
2023/10/09 13:42:58;;;;;;;5.47;4.17;;;12.40;99.90;;;;;;4918798;29;20028;-56
2023/10/09 13:45:32;;;;;;;8.20;4.30;;;12.40;99.90;;;;;;4918866;29;20092;-57
2023/10/09 13:47:59;;;;;;;5.18;3.78;;;12.40;99.90;;;;;;4923244;29;20024;-57
2023/10/09 13:50:28;;;;;;;4.93;3.60;;;12.30;99.90;;;;;;4925027;29;20083;-55
2023/10/09 13:52:54;;;;;;;4.50;3.20;;;12.30;99.90;;;;;;4924182;28;20035;-59
2023/10/09 13:55:20;;;;;;;7.75;4.00;;;12.30;99.90;;;;;;4919136;29;20131;-58
2023/10/09 13:57:46;;;;;;;6.40;3.80;;;12.30;99.90;;;;;;4918644;29;20099;-57
2023/10/09 14:00:32;;;;;;;6.57;4.10;;;12.30;99.90;;;;;;4914713;29;20043;-56
2023/10/09 14:03:01;;;;;;;6.88;3.38;;;12.40;99.90;;;;;;4921263;29;20050;-58
2023/10/09 14:05:27;;;;;;;6.32;4.57;;;12.40;99.90;;;;;;4918103;29;20066;-57
2023/10/09 14:07:57;;;;;;;7.88;4.40;;;12.50;99.90;;;;;;4917948;29;20059;-55
2023/10/09 14:10:26;;;;;;;5.07;3.75;;;12.50;99.90;;;;;;4917587;29;20035;-57
2023/10/09 14:12:54;;;;;;;5.28;3.38;;;12.60;99.90;;;;;;4922689;29;20023;-54
2023/10/09 14:15:19;;;;;;;4.38;3.50;;;12.60;99.90;;;;;;4917450;29;20035;-54
2023/10/09 14:17:46;;;;;;;6.22;3.75;;;12.60;99.90;;;;;;4917887;29;20506;-53
2023/10/09 14:20:31;;;;;;;7.07;3.72;;;12.70;99.90;;;;;;4927269;28;20403;-57
2023/10/09 14:23:06;;;;;;;5.53;3.65;;;12.80;99.90;;;;;;4920602;29;20032;-56
2023/10/09 14:25:32;;;;;;;5.65;3.67;;;12.80;99.90;;;;;;4918275;29;20396;-56
2023/10/09 14:27:57;;;;;;;8.10;4.97;;;12.90;99.90;;;;;;4918073;29;20031;-55
2023/10/09 14:30:30;;;;;;;6.63;4.50;;;12.80;99.90;;;;;;4925237;28;20513;-56
2023/10/09 14:32:56;;;;;;;6.88;4.53;;;12.70;99.90;;;;;;4919925;29;20201;-56
2023/10/09 14:35:26;;;;;;;12.45;7.00;;;12.70;99.90;;;;;;4922839;29;20039;-56
2023/10/09 14:37:53;;;;;;;26.10;13.10;;;12.70;99.90;;;;;;4917246;28;20107;-57
2023/10/09 14:40:29;;;;;;;10.45;6.50;;;12.70;99.90;;;;;;4917881;29;20159;-54
2023/10/09 14:42:57;;;;;;;;;;;12.50;99.90;;;;;;4918444;29;20058;-52
2023/10/09 14:45:26;;;;;;;11.80;6.55;;;12.40;99.90;;;;;;4918129;29;20320;-54
2023/10/09 14:47:53;;;;;;;11.88;7.90;;;12.40;99.90;;;;;;4913392;29;20032;-55
2023/10/09 14:50:22;;;;;;;7.50;5.55;;;12.30;99.90;;;;;;4919056;29;20381;-57
2023/10/09 14:52:48;;;;;;;13.30;8.30;;;12.30;99.90;;;;;;4922616;29;20024;-57
2023/10/09 14:55:13;;;;;;;10.40;5.88;;;12.30;99.90;;;;;;4921064;29;20027;-53
2023/10/09 14:57:39;;;;;;;10.32;5.63;;;12.20;99.90;;;;;;4921282;29;20036;-57
2023/10/09 15:00:13;;;;;;;8.32;5.50;;;12.00;99.90;;;;;;4921139;29;20071;-57
2023/10/09 15:02:39;;;;;;;11.15;5.85;;;11.90;99.90;;;;;;4928513;28;20612;-56
2023/10/09 15:05:05;;;;;;;8.40;5.63;;;12.00;99.90;;;;;;4927155;29;20501;-57
2023/10/09 15:07:30;;;;;;;8.77;6.00;;;11.90;99.90;;;;;;4926613;29;20433;-51
2023/10/09 15:10:03;;;;;;;9.65;5.22;;;11.90;99.90;;;;;;4928958;28;20066;-52
2023/10/09 15:12:29;;;;;;;9.68;5.50;;;11.90;99.90;;;;;;4924681;29;20171;-52
2023/10/09 15:14:56;;;;;;;8.60;6.03;;;11.80;99.90;;;;;;4924691;29;20028;-50
2023/10/09 15:17:22;;;;;;;8.20;5.70;;;11.80;99.90;;;;;;4922153;29;20526;-50
2023/10/09 15:19:47;;;;;;;8.45;5.78;;;11.80;99.90;;;;;;4916390;29;20131;-53
2023/10/09 15:22:12;;;;;;;8.50;6.43;;;11.80;99.90;;;;;;4920762;29;20068;-54
2023/10/09 15:24:38;;;;;;;13.65;8.35;;;11.80;99.90;;;;;;4920771;29;20027;-48
2023/10/09 15:27:05;;;;;;;10.57;6.68;;;11.70;99.90;;;;;;4920848;29;20036;-50
2023/10/09 15:29:32;;;;;;;8.27;5.15;;;11.70;99.90;;;;;;4920097;29;20432;-54
2023/10/09 15:32:14;;;;;;;7.57;5.35;;;11.60;99.90;;;;;;4924006;29;20105;-49
2023/10/09 15:34:41;;;;;;;6.03;4.45;;;11.60;99.90;;;;;;4922942;29;20589;-52
2023/10/09 15:37:07;;;;;;;5.15;3.78;;;11.60;99.90;;;;;;4924735;28;20047;-54
2023/10/09 15:39:34;;;;;;;7.32;4.30;;;11.60;99.90;;;;;;4926544;29;20027;-54